createdAt,value
2018-07-04T00:00:22.015Z,0
2018-07-04T00:01:30.922Z,0
2018-07-04T00:02:39.561Z,0
2018-07-04T00:03:48.210Z,0
2018-07-04T00:04:56.859Z,0
2018-07-04T00:06:05.505Z,0
2018-07-04T00:07:14.410Z,0
2018-07-04T00:08:23.051Z,0
2018-07-04T00:09:31.703Z,0
2018-07-04T00:10:40.349Z,0
2018-07-04T00:11:48.996Z,0
2018-07-04T00:12:57.636Z,0
2018-07-04T00:14:06.290Z,0
2018-07-04T00:15:14.932Z,0
2018-07-04T00:16:23.579Z,0
2018-07-04T00:17:32.222Z,0
2018-07-04T00:18:41.136Z,0
2018-07-04T00:19:49.782Z,0
2018-07-04T00:20:58.430Z,0
2018-07-04T00:22:07.340Z,0
2018-07-04T00:23:15.981Z,0
2018-07-04T00:24:24.626Z,0
2018-07-04T00:25:33.275Z,0
2018-07-04T00:26:41.925Z,0
2018-07-04T00:27:50.565Z,0
2018-07-04T00:28:59.211Z,0
2018-07-04T00:30:08.389Z,0
2018-07-04T00:31:17.038Z,0
2018-07-04T00:32:25.679Z,0
2018-07-04T00:33:34.331Z,0
2018-07-04T00:34:42.971Z,0
2018-07-04T00:35:51.622Z,0
2018-07-04T00:37:00.531Z,0
2018-07-04T00:38:09.177Z,0
2018-07-04T00:39:17.821Z,0
2018-07-04T00:40:26.465Z,0
2018-07-04T00:41:35.116Z,0
2018-07-04T00:42:43.762Z,0
2018-07-04T00:43:52.409Z,0
2018-07-04T00:45:01.315Z,0
2018-07-04T00:46:09.958Z,0
2018-07-04T00:47:18.877Z,0
2018-07-04T00:48:27.519Z,0
2018-07-04T00:49:36.175Z,0
2018-07-04T00:50:44.810Z,0
2018-07-04T00:51:53.456Z,0
2018-07-04T00:53:02.105Z,0
2018-07-04T00:54:10.756Z,0
2018-07-04T00:55:19.398Z,0
2018-07-04T00:56:28.306Z,0
2018-07-04T00:57:36.944Z,0
2018-07-04T00:58:45.585Z,0
2018-07-04T00:59:54.242Z,0
2018-07-04T01:01:02.881Z,0
2018-07-04T01:02:11.532Z,0
2018-07-04T01:03:20.435Z,0
2018-07-04T01:04:29.089Z,0
2018-07-04T01:05:37.730Z,0
2018-07-04T01:06:46.381Z,0
2018-07-04T01:07:55.014Z,0
2018-07-04T01:09:03.670Z,0
2018-07-04T01:10:12.315Z,0
2018-07-04T01:11:20.962Z,0
2018-07-04T01:12:29.598Z,0
2018-07-04T01:13:38.251Z,0
2018-07-04T01:14:46.902Z,0
2018-07-04T01:15:55.549Z,0
2018-07-04T01:17:04.198Z,0
2018-07-04T01:18:12.833Z,0
2018-07-04T01:19:21.488Z,0
2018-07-04T01:20:30.395Z,0
2018-07-04T01:21:39.579Z,0
2018-07-04T01:22:48.218Z,0
2018-07-04T01:23:56.867Z,0
2018-07-04T01:25:05.508Z,0
2018-07-04T01:26:14.166Z,0
2018-07-04T01:27:22.803Z,0
2018-07-04T01:28:31.980Z,0
2018-07-04T01:29:40.623Z,0
2018-07-04T01:30:49.547Z,0
2018-07-04T01:31:58.450Z,0
2018-07-04T01:33:07.090Z,0
2018-07-04T01:34:15.733Z,0
2018-07-04T01:35:24.376Z,0
2018-07-04T01:36:33.045Z,0
2018-07-04T01:37:41.944Z,0
2018-07-04T01:38:50.596Z,0
2018-07-04T01:39:59.493Z,0
2018-07-04T01:41:08.147Z,0
2018-07-04T01:42:16.787Z,0
2018-07-04T01:43:25.437Z,0
2018-07-04T01:44:34.074Z,0
2018-07-04T01:45:42.726Z,0
2018-07-04T01:46:51.365Z,0
2018-07-04T01:48:00.019Z,0
2018-07-04T01:49:08.658Z,0
2018-07-04T01:50:17.307Z,0
2018-07-04T01:51:25.951Z,0
2018-07-04T01:52:34.599Z,0
2018-07-04T01:53:43.246Z,0
2018-07-04T01:54:51.886Z,0
2018-07-04T01:56:00.532Z,0
2018-07-04T01:57:09.176Z,0
2018-07-04T01:58:18.085Z,0
2018-07-04T01:59:26.724Z,0
2018-07-04T02:00:35.372Z,0
2018-07-04T02:01:44.018Z,0
2018-07-04T02:02:52.674Z,0
2018-07-04T02:04:01.320Z,0
2018-07-04T02:05:09.960Z,0
2018-07-04T02:06:18.602Z,0
2018-07-04T02:07:27.251Z,0
2018-07-04T02:08:35.896Z,0
2018-07-04T02:09:44.541Z,0
2018-07-04T02:10:53.712Z,0
2018-07-04T02:12:02.354Z,0
2018-07-04T02:13:11.001Z,0
2018-07-04T02:14:19.646Z,0
2018-07-04T02:15:28.292Z,0
2018-07-04T02:16:36.937Z,0
2018-07-04T02:17:45.591Z,0
2018-07-04T02:18:54.236Z,0
2018-07-04T02:20:02.883Z,0
2018-07-04T02:21:11.526Z,0
2018-07-04T02:22:20.173Z,0
2018-07-04T02:23:28.815Z,0
2018-07-04T02:24:37.461Z,0
2018-07-04T02:25:46.101Z,0
2018-07-04T02:26:54.750Z,0
2018-07-04T02:28:03.396Z,0
2018-07-04T02:29:12.043Z,0
2018-07-04T02:30:21.230Z,4
2018-07-04T02:31:29.871Z,4
2018-07-04T02:32:38.524Z,0
2018-07-04T02:33:47.437Z,0
2018-07-04T02:34:56.096Z,4
2018-07-04T02:36:04.739Z,0
2018-07-04T02:37:13.393Z,4
2018-07-04T02:38:22.034Z,4
2018-07-04T02:39:30.686Z,4
2018-07-04T02:40:39.330Z,4
2018-07-04T02:41:47.979Z,4
2018-07-04T02:42:56.632Z,4
2018-07-04T02:44:05.542Z,4
2018-07-04T02:45:14.193Z,8
2018-07-04T02:46:22.840Z,8
2018-07-04T02:47:31.494Z,12
2018-07-04T02:48:40.145Z,12
2018-07-04T02:49:48.801Z,12
2018-07-04T02:50:57.448Z,12
2018-07-04T02:52:06.354Z,16
2018-07-04T02:53:15.533Z,16
2018-07-04T02:54:24.168Z,16
2018-07-04T02:55:32.816Z,24
2018-07-04T02:56:41.468Z,28
2018-07-04T02:57:50.649Z,32
2018-07-04T02:58:59.557Z,36
2018-07-04T03:00:08.468Z,40
2018-07-04T03:01:17.571Z,40
2018-07-04T03:02:26.430Z,44
2018-07-04T03:03:35.216Z,48
2018-07-04T03:04:44.505Z,52
2018-07-04T03:05:53.559Z,56
2018-07-04T03:07:02.257Z,60
2018-07-04T03:08:11.456Z,68
2018-07-04T03:09:20.105Z,76
2018-07-04T03:10:29.277Z,88
2018-07-04T03:11:37.921Z,104
2018-07-04T03:12:46.578Z,120
2018-07-04T03:13:55.228Z,136
2018-07-04T03:15:03.872Z,148
2018-07-04T03:16:12.514Z,168
2018-07-04T03:17:21.171Z,180
2018-07-04T03:18:30.096Z,196
2018-07-04T03:19:38.751Z,208
2018-07-04T03:20:47.392Z,224
2018-07-04T03:21:56.048Z,228
2018-07-04T03:23:04.696Z,236
2018-07-04T03:24:13.611Z,232
2018-07-04T03:25:22.518Z,240
2018-07-04T03:26:31.163Z,256
2018-07-04T03:27:39.807Z,276
2018-07-04T03:28:48.452Z,296
2018-07-04T03:29:57.366Z,304
2018-07-04T03:31:06.533Z,316
2018-07-04T03:32:15.181Z,316
2018-07-04T03:33:23.826Z,316
2018-07-04T03:34:32.740Z,324
2018-07-04T03:35:41.384Z,344
2018-07-04T03:36:50.038Z,380
2018-07-04T03:37:58.941Z,412
2018-07-04T03:39:07.591Z,452
2018-07-04T03:40:16.234Z,480
2018-07-04T03:41:25.137Z,508
2018-07-04T03:42:33.776Z,544
2018-07-04T03:43:42.676Z,588
2018-07-04T03:44:51.331Z,636
2018-07-04T03:46:00.496Z,688
2018-07-04T03:47:09.409Z,748
2018-07-04T03:48:18.044Z,816
2018-07-04T03:49:26.697Z,888
2018-07-04T03:50:35.337Z,956
2018-07-04T03:51:43.983Z,1032
2018-07-04T03:52:52.881Z,1096
2018-07-04T03:54:01.560Z,1156
2018-07-04T03:55:10.208Z,1196
2018-07-04T03:56:18.856Z,1236
2018-07-04T03:57:27.493Z,1256
2018-07-04T03:58:36.142Z,1288
2018-07-04T03:59:44.792Z,1324
2018-07-04T04:00:53.447Z,1328
2018-07-04T04:02:02.092Z,1336
2018-07-04T04:03:10.723Z,1348
2018-07-04T04:04:19.369Z,1356
2018-07-04T04:05:28.010Z,1396
2018-07-04T04:06:36.669Z,1440
2018-07-04T04:07:45.308Z,1480
2018-07-04T04:08:53.953Z,1536
2018-07-04T04:10:02.594Z,1568
2018-07-04T04:11:11.250Z,1560
2018-07-04T04:12:19.887Z,1528
2018-07-04T04:13:28.793Z,1496
2018-07-04T04:14:37.436Z,1436
2018-07-04T04:15:46.090Z,1384
2018-07-04T04:16:54.740Z,1348
2018-07-04T04:18:03.382Z,1340
2018-07-04T04:19:12.030Z,1344
2018-07-04T04:20:20.670Z,1372
2018-07-04T04:21:29.323Z,1412
2018-07-04T04:22:38.224Z,1444
2018-07-04T04:23:46.875Z,1480
2018-07-04T04:24:55.774Z,1500
2018-07-04T04:26:04.689Z,1520
2018-07-04T04:27:13.344Z,1576
2018-07-04T04:28:21.984Z,1644
2018-07-04T04:29:30.618Z,1728
2018-07-04T04:30:39.272Z,1800
2018-07-04T04:31:47.915Z,1864
2018-07-04T04:32:56.563Z,1936
2018-07-04T04:34:05.198Z,2000
2018-07-04T04:35:13.845Z,2060
2018-07-04T04:36:22.594Z,2116
2018-07-04T04:37:31.141Z,2164
2018-07-04T04:38:39.790Z,2216
2018-07-04T04:39:48.429Z,2260
2018-07-04T04:40:57.340Z,2324
2018-07-04T04:42:05.987Z,2400
2018-07-04T04:43:14.896Z,2500
2018-07-04T04:44:23.539Z,2624
2018-07-04T04:45:32.445Z,2780
2018-07-04T04:46:41.090Z,2988
2018-07-04T04:47:49.742Z,3244
2018-07-04T04:48:58.644Z,3372
2018-07-04T04:50:07.292Z,3260
2018-07-04T04:51:15.936Z,2940
2018-07-04T04:52:24.587Z,2572
2018-07-04T04:53:33.250Z,2324
2018-07-04T04:54:41.923Z,2192
2018-07-04T04:55:50.535Z,2108
2018-07-04T04:56:59.438Z,2060
2018-07-04T04:58:08.092Z,2032
2018-07-04T04:59:16.736Z,2024
2018-07-04T05:00:25.382Z,2052
2018-07-04T05:01:34.033Z,2128
2018-07-04T05:02:42.682Z,2224
2018-07-04T05:03:51.327Z,2324
2018-07-04T05:04:59.972Z,2372
2018-07-04T05:06:08.614Z,2364
2018-07-04T05:07:17.265Z,2408
2018-07-04T05:08:25.907Z,2480
2018-07-04T05:09:34.559Z,2524
2018-07-04T05:10:43.199Z,2540
2018-07-04T05:11:51.840Z,2556
2018-07-04T05:13:00.486Z,2640
2018-07-04T05:14:09.132Z,2804
2018-07-04T05:15:17.785Z,3020
2018-07-04T05:16:26.427Z,3316
2018-07-04T05:17:35.074Z,3512
2018-07-04T05:18:43.719Z,3604
2018-07-04T05:19:52.369Z,3592
2018-07-04T05:21:01.025Z,3608
2018-07-04T05:22:09.656Z,3664
2018-07-04T05:23:18.304Z,3796
2018-07-04T05:24:26.954Z,3864
2018-07-04T05:25:35.857Z,3928
2018-07-04T05:26:44.510Z,3992
2018-07-04T05:27:53.153Z,4092
2018-07-04T05:29:01.805Z,4264
2018-07-04T05:30:10.451Z,4556
2018-07-04T05:31:19.098Z,4808
2018-07-04T05:32:27.740Z,4980
2018-07-04T05:33:36.384Z,4896
2018-07-04T05:34:45.038Z,4752
2018-07-04T05:35:53.950Z,4612
2018-07-04T05:37:02.590Z,4556
2018-07-04T05:38:11.235Z,4724
2018-07-04T05:39:19.888Z,4772
2018-07-04T05:40:28.790Z,4936
2018-07-04T05:41:37.441Z,5056
2018-07-04T05:42:46.080Z,5112
2018-07-04T05:43:54.999Z,5240
2018-07-04T05:45:03.932Z,5476
2018-07-04T05:46:12.856Z,5736
2018-07-04T05:47:21.492Z,5808
2018-07-04T05:48:30.142Z,6108
2018-07-04T05:49:38.794Z,6184
2018-07-04T05:50:47.442Z,6544
2018-07-04T05:51:56.090Z,6424
2018-07-04T05:53:04.989Z,6072
2018-07-04T05:54:13.641Z,5872
2018-07-04T05:55:22.286Z,5760
2018-07-04T05:56:30.939Z,5564
2018-07-04T05:57:39.578Z,5360
2018-07-04T05:58:48.232Z,5272
2018-07-04T05:59:57.135Z,5308
2018-07-04T06:01:05.787Z,5312
2018-07-04T06:02:14.423Z,5436
2018-07-04T06:03:23.073Z,5336
2018-07-04T06:04:31.720Z,5348
2018-07-04T06:05:40.377Z,5192
2018-07-04T06:06:49.560Z,5088
2018-07-04T06:07:58.205Z,5072
2018-07-04T06:09:07.162Z,4916
2018-07-04T06:10:16.074Z,5016
2018-07-04T06:11:24.730Z,4992
2018-07-04T06:12:33.374Z,5092
2018-07-04T06:13:42.027Z,5104
2018-07-04T06:14:50.666Z,5016
2018-07-04T06:15:59.323Z,4840
2018-07-04T06:17:07.967Z,4628
2018-07-04T06:18:16.619Z,4500
2018-07-04T06:19:25.257Z,4620
2018-07-04T06:20:33.912Z,4528
2018-07-04T06:21:42.557Z,4620
2018-07-04T06:22:51.207Z,4820
2018-07-04T06:23:59.847Z,4872
2018-07-04T06:25:08.499Z,5280
2018-07-04T06:26:17.150Z,5568
2018-07-04T06:27:26.074Z,5700
2018-07-04T06:28:34.728Z,5616
2018-07-04T06:29:43.634Z,5468
2018-07-04T06:30:52.288Z,5400
2018-07-04T06:32:00.940Z,5508
2018-07-04T06:33:09.855Z,5644
2018-07-04T06:34:18.494Z,5796
2018-07-04T06:35:27.149Z,5812
2018-07-04T06:36:35.794Z,5788
2018-07-04T06:37:44.441Z,5864
2018-07-04T06:38:53.099Z,5792
2018-07-04T06:40:01.750Z,5608
2018-07-04T06:41:10.396Z,5376
2018-07-04T06:42:19.309Z,5192
2018-07-04T06:43:27.960Z,5148
2018-07-04T06:44:36.615Z,5296
2018-07-04T06:45:45.265Z,5544
2018-07-04T06:46:53.915Z,5656
2018-07-04T06:48:02.557Z,5716
2018-07-04T06:49:11.262Z,5792
2018-07-04T06:50:19.855Z,5780
2018-07-04T06:51:28.512Z,5804
2018-07-04T06:52:37.152Z,5868
2018-07-04T06:53:45.814Z,5960
2018-07-04T06:54:54.456Z,6168
2018-07-04T06:56:03.122Z,6340
2018-07-04T06:57:12.029Z,6444
2018-07-04T06:58:20.680Z,6352
2018-07-04T06:59:29.603Z,6144
2018-07-04T07:00:38.525Z,5984
2018-07-04T07:01:47.226Z,5944
2018-07-04T07:02:55.815Z,5972
2018-07-04T07:04:04.463Z,6028
2018-07-04T07:05:13.109Z,6136
2018-07-04T07:06:21.768Z,6136
2018-07-04T07:07:30.412Z,6064
2018-07-04T07:08:39.541Z,6004
2018-07-04T07:09:48.079Z,5984
2018-07-04T07:10:56.996Z,5880
2018-07-04T07:12:05.641Z,5832
2018-07-04T07:13:14.556Z,5800
2018-07-04T07:14:23.242Z,5828
2018-07-04T07:15:31.849Z,5816
2018-07-04T07:16:40.496Z,5904
2018-07-04T07:17:49.148Z,5980
2018-07-04T07:18:57.788Z,6052
2018-07-04T07:20:06.707Z,6160
2018-07-04T07:21:15.765Z,6312
2018-07-04T07:22:24.370Z,6788
2018-07-04T07:23:33.279Z,6716
2018-07-04T07:24:41.920Z,6220
2018-07-04T07:25:50.572Z,5864
2018-07-04T07:26:59.492Z,5628
2018-07-04T07:28:08.154Z,5500
2018-07-04T07:29:16.797Z,5816
2018-07-04T07:30:25.458Z,5680
2018-07-04T07:31:34.359Z,5428
2018-07-04T07:32:43.017Z,5476
2018-07-04T07:33:51.664Z,5376
2018-07-04T07:35:00.619Z,5508
2018-07-04T07:36:09.257Z,5560
2018-07-04T07:37:17.912Z,5584
2018-07-04T07:38:26.558Z,5516
2018-07-04T07:39:35.205Z,5424
2018-07-04T07:40:43.851Z,5188
2018-07-04T07:41:52.506Z,5020
2018-07-04T07:43:01.425Z,5148
2018-07-04T07:44:10.075Z,5432
2018-07-04T07:45:18.728Z,5788
2018-07-04T07:46:27.374Z,5952
2018-07-04T07:47:36.033Z,6220
2018-07-04T07:48:44.705Z,6304
2018-07-04T07:49:53.335Z,6828
2018-07-04T07:51:01.985Z,7404
2018-07-04T07:52:10.908Z,7252
2018-07-04T07:53:19.554Z,7132
2018-07-04T07:54:28.265Z,6968
2018-07-04T07:55:36.853Z,6912
2018-07-04T07:56:45.505Z,6996
2018-07-04T07:57:54.427Z,7248
2018-07-04T07:59:03.080Z,7024
2018-07-04T08:00:11.735Z,7176
2018-07-04T08:01:20.382Z,7068
2018-07-04T08:02:29.029Z,6992
2018-07-04T08:03:37.683Z,6508
2018-07-04T08:04:46.337Z,6384
2018-07-04T08:05:55.000Z,6160
2018-07-04T08:07:03.638Z,5896
2018-07-04T08:08:12.452Z,5684
2018-07-04T08:09:21.107Z,5564
2018-07-04T08:10:29.753Z,5508
2018-07-04T08:11:38.700Z,5504
2018-07-04T08:12:47.439Z,5768
2018-07-04T08:13:56.545Z,5776
2018-07-04T08:15:05.200Z,5184
2018-07-04T08:16:14.114Z,5144
2018-07-04T08:17:22.764Z,4952
2018-07-04T08:18:31.412Z,5156
2018-07-04T08:19:40.074Z,4780
2018-07-04T08:20:48.723Z,4596
2018-07-04T08:21:57.378Z,4544
2018-07-04T08:23:06.029Z,4916
2018-07-04T08:24:14.944Z,4640
2018-07-04T08:25:23.597Z,4532
2018-07-04T08:26:32.246Z,4556
2018-07-04T08:27:40.897Z,4880
2018-07-04T08:28:49.551Z,4944
2018-07-04T08:29:58.198Z,4460
2018-07-04T08:31:06.853Z,4368
2018-07-04T08:32:15.499Z,4388
2018-07-04T08:33:24.198Z,4448
2018-07-04T08:34:32.806Z,4508
2018-07-04T08:35:41.461Z,4476
2018-07-04T08:36:50.117Z,4744
2018-07-04T08:37:59.026Z,5172
2018-07-04T08:39:07.699Z,5048
2018-07-04T08:40:16.617Z,5240
2018-07-04T08:41:25.273Z,5220
2018-07-04T08:42:33.920Z,5112
2018-07-04T08:43:42.573Z,5392
2018-07-04T08:44:51.226Z,5228
2018-07-04T08:45:59.880Z,5216
2018-07-04T08:47:08.531Z,5072
2018-07-04T08:48:17.183Z,4984
2018-07-04T08:49:25.835Z,4848
2018-07-04T08:50:34.532Z,4708
2018-07-04T08:51:43.143Z,4580
2018-07-04T08:52:52.150Z,4404
2018-07-04T08:54:01.011Z,4460
2018-07-04T08:55:09.668Z,4480
2018-07-04T08:56:18.850Z,4528
2018-07-04T08:57:27.501Z,4532
2018-07-04T08:58:36.179Z,4500
2018-07-04T08:59:44.804Z,4500
2018-07-04T09:00:53.462Z,4468
2018-07-04T09:02:02.112Z,4356
2018-07-04T09:03:10.767Z,4184
2018-07-04T09:04:19.416Z,4312
2018-07-04T09:05:28.077Z,4280
2018-07-04T09:06:36.721Z,4228
2018-07-04T09:07:45.375Z,4320
2018-07-04T09:08:54.023Z,4312
2018-07-04T09:10:02.678Z,4320
2018-07-04T09:11:11.331Z,4320
2018-07-04T09:12:19.988Z,4348
2018-07-04T09:13:28.651Z,4400
2018-07-04T09:14:37.298Z,4464
2018-07-04T09:15:45.953Z,4524
2018-07-04T09:16:54.602Z,4564
2018-07-04T09:18:03.261Z,4580
2018-07-04T09:19:11.908Z,4608
2018-07-04T09:20:20.562Z,4644
2018-07-04T09:21:29.212Z,4648
2018-07-04T09:22:37.872Z,4656
2018-07-04T09:23:46.516Z,4644
2018-07-04T09:24:55.173Z,4684
2018-07-04T09:26:03.821Z,4692
2018-07-04T09:27:12.735Z,4684
2018-07-04T09:28:21.383Z,4680
2018-07-04T09:29:30.035Z,4664
2018-07-04T09:30:38.684Z,4660
2018-07-04T09:31:47.600Z,4660
2018-07-04T09:32:56.523Z,4648
2018-07-04T09:34:05.168Z,4648
2018-07-04T09:35:13.829Z,4644
2018-07-04T09:36:22.474Z,4640
2018-07-04T09:37:31.140Z,4624
2018-07-04T09:38:39.784Z,4616
2018-07-04T09:39:48.441Z,4584
2018-07-04T09:40:57.085Z,4564
2018-07-04T09:42:05.747Z,4580
2018-07-04T09:43:14.398Z,4564
2018-07-04T09:44:23.049Z,4532
2018-07-04T09:45:31.689Z,4444
2018-07-04T09:46:40.346Z,4228
2018-07-04T09:47:49.009Z,4440
2018-07-04T09:48:57.915Z,4336
2018-07-04T09:50:06.654Z,4224
2018-07-04T09:51:15.481Z,4252
2018-07-04T09:52:24.139Z,4152
2018-07-04T09:53:33.052Z,3840
2018-07-04T09:54:41.713Z,3760
2018-07-04T09:55:50.356Z,3676
2018-07-04T09:56:59.017Z,3716
2018-07-04T09:58:07.663Z,3692
2018-07-04T09:59:16.328Z,3512
2018-07-04T10:00:24.973Z,3460
2018-07-04T10:01:33.627Z,3464
2018-07-04T10:02:42.280Z,3564
2018-07-04T10:03:50.941Z,3668
2018-07-04T10:04:59.591Z,3696
2018-07-04T10:06:08.241Z,3660
2018-07-04T10:07:17.157Z,3768
2018-07-04T10:08:25.805Z,3952
2018-07-04T10:09:34.808Z,4168
2018-07-04T10:10:43.952Z,4356
2018-07-04T10:11:52.611Z,4564
2018-07-04T10:13:01.259Z,4648
2018-07-04T10:14:09.919Z,4704
2018-07-04T10:15:18.865Z,4732
2018-07-04T10:16:27.796Z,4800
2018-07-04T10:17:36.597Z,4836
2018-07-04T10:18:45.344Z,4856
2018-07-04T10:19:54.040Z,4888
2018-07-04T10:21:02.962Z,4936
2018-07-04T10:22:11.608Z,4964
2018-07-04T10:23:20.456Z,5060
2018-07-04T10:24:29.193Z,5120
2018-07-04T10:25:37.828Z,5144
2018-07-04T10:26:46.486Z,5152
2018-07-04T10:27:55.130Z,4828
2018-07-04T10:29:03.788Z,4788
2018-07-04T10:30:12.435Z,4824
2018-07-04T10:31:21.098Z,4924
2018-07-04T10:32:29.793Z,4800
2018-07-04T10:33:38.508Z,4424
2018-07-04T10:34:47.160Z,4452
2018-07-04T10:35:56.208Z,4376
2018-07-04T10:37:04.870Z,4012
2018-07-04T10:38:13.571Z,4044
2018-07-04T10:39:22.264Z,4040
2018-07-04T10:40:30.908Z,4180
2018-07-04T10:41:39.566Z,4204
2018-07-04T10:42:48.224Z,4252
2018-07-04T10:43:56.880Z,4252
2018-07-04T10:45:05.537Z,4284
2018-07-04T10:46:14.181Z,4284
2018-07-04T10:47:22.838Z,4272
2018-07-04T10:48:31.488Z,4340
2018-07-04T10:49:40.147Z,4368
2018-07-04T10:50:48.794Z,4404
2018-07-04T10:51:57.456Z,4436
2018-07-04T10:53:06.104Z,4452
2018-07-04T10:54:14.767Z,4460
2018-07-04T10:55:23.412Z,4472
2018-07-04T10:56:32.069Z,4516
2018-07-04T10:57:40.981Z,4540
2018-07-04T10:58:49.910Z,4564
2018-07-04T10:59:58.562Z,4528
2018-07-04T11:01:07.212Z,4576
2018-07-04T11:02:15.864Z,4580
2018-07-04T11:03:24.518Z,4560
2018-07-04T11:04:33.199Z,4580
2018-07-04T11:05:41.837Z,4600
2018-07-04T11:06:50.497Z,4636
2018-07-04T11:07:59.142Z,4668
2018-07-04T11:09:08.071Z,4704
2018-07-04T11:10:16.725Z,4700
2018-07-04T11:11:25.409Z,4688
2018-07-04T11:12:34.031Z,4700
2018-07-04T11:13:42.691Z,4712
2018-07-04T11:14:51.343Z,4708
2018-07-04T11:16:00.001Z,4720
2018-07-04T11:17:08.827Z,4776
2018-07-04T11:18:17.304Z,4780
2018-07-04T11:19:25.969Z,4732
2018-07-04T11:20:34.620Z,4692
2018-07-04T11:21:43.542Z,4652
2018-07-04T11:22:52.192Z,4616
2018-07-04T11:24:00.851Z,4620
2018-07-04T11:25:09.767Z,4148
2018-07-04T11:26:18.689Z,4540
2018-07-04T11:27:27.336Z,4320
2018-07-04T11:28:36.329Z,4248
2018-07-04T11:29:44.983Z,4416
2018-07-04T11:30:53.644Z,4388
2018-07-04T11:32:02.292Z,4304
2018-07-04T11:33:10.951Z,4220
2018-07-04T11:34:19.601Z,4248
2018-07-04T11:35:28.259Z,4268
2018-07-04T11:36:36.911Z,4324
2018-07-04T11:37:45.560Z,4384
2018-07-04T11:38:54.476Z,4496
2018-07-04T11:40:03.131Z,4548
2018-07-04T11:41:12.052Z,4512
2018-07-04T11:42:20.704Z,4484
2018-07-04T11:43:29.361Z,4500
2018-07-04T11:44:38.296Z,4556
2018-07-04T11:45:47.215Z,4572
2018-07-04T11:46:55.870Z,4584
2018-07-04T11:48:04.523Z,4592
2018-07-04T11:49:13.174Z,4532
2018-07-04T11:50:21.836Z,4308
2018-07-04T11:51:30.489Z,4196
2018-07-04T11:52:39.152Z,4732
2018-07-04T11:53:48.075Z,4704
2018-07-04T11:54:56.733Z,4724
2018-07-04T11:56:05.394Z,4784
2018-07-04T11:57:14.046Z,4712
2018-07-04T11:58:22.705Z,4592
2018-07-04T11:59:31.358Z,4620
2018-07-04T12:00:40.018Z,4620
2018-07-04T12:01:48.708Z,4628
2018-07-04T12:02:57.328Z,4652
2018-07-04T12:04:05.979Z,4556
2018-07-04T12:05:14.635Z,4364
2018-07-04T12:06:23.569Z,4288
2018-07-04T12:07:32.230Z,4364
2018-07-04T12:08:41.140Z,4416
2018-07-04T12:09:49.798Z,4556
2018-07-04T12:10:58.531Z,4792
2018-07-04T12:12:07.119Z,4936
2018-07-04T12:13:15.774Z,4868
2018-07-04T12:14:24.429Z,4920
2018-07-04T12:15:33.350Z,4172
2018-07-04T12:16:42.534Z,4048
2018-07-04T12:17:51.194Z,4612
2018-07-04T12:18:59.850Z,3972
2018-07-04T12:20:08.511Z,4428
2018-07-04T12:21:17.163Z,4372
2018-07-04T12:22:25.824Z,5004
2018-07-04T12:23:34.479Z,5272
2018-07-04T12:24:43.136Z,5092
2018-07-04T12:25:51.788Z,4904
2018-07-04T12:27:00.463Z,4812
2018-07-04T12:28:09.371Z,4628
2018-07-04T12:29:18.289Z,4524
2018-07-04T12:30:27.212Z,4440
2018-07-04T12:31:35.866Z,4372
2018-07-04T12:32:44.520Z,4224
2018-07-04T12:33:53.174Z,4260
2018-07-04T12:35:01.831Z,4324
2018-07-04T12:36:10.496Z,4380
2018-07-04T12:37:19.445Z,4320
2018-07-04T12:38:28.067Z,4188
2018-07-04T12:39:36.719Z,3988
2018-07-04T12:40:45.386Z,3964
2018-07-04T12:41:54.302Z,4028
2018-07-04T12:43:03.238Z,3980
2018-07-04T12:44:11.882Z,4248
2018-07-04T12:45:20.544Z,4224
2018-07-04T12:46:29.203Z,4268
2018-07-04T12:47:38.124Z,4252
2018-07-04T12:48:46.776Z,4164
2018-07-04T12:49:55.702Z,4188
2018-07-04T12:51:04.654Z,4336
2018-07-04T12:52:13.573Z,4344
2018-07-04T12:53:22.236Z,4364
2018-07-04T12:54:31.337Z,4428
2018-07-04T12:55:40.200Z,4416
2018-07-04T12:56:48.856Z,4376
2018-07-04T12:57:57.520Z,4276
2018-07-04T12:59:06.169Z,4388
2018-07-04T13:00:15.093Z,4468
2018-07-04T13:01:23.747Z,4544
2018-07-04T13:02:32.407Z,4628
2018-07-04T13:03:41.067Z,4680
2018-07-04T13:04:49.727Z,4744
2018-07-04T13:05:58.389Z,4884
2018-07-04T13:07:07.057Z,4956
2018-07-04T13:08:15.708Z,4884
2018-07-04T13:09:24.410Z,4840
2018-07-04T13:10:33.530Z,4884
2018-07-04T13:11:42.185Z,4940
2018-07-04T13:12:50.852Z,5096
2018-07-04T13:13:59.857Z,5196
2018-07-04T13:15:08.449Z,5128
2018-07-04T13:16:17.204Z,5012
2018-07-04T13:17:25.770Z,4836
2018-07-04T13:18:34.684Z,4856
2018-07-04T13:19:43.385Z,4832
2018-07-04T13:20:52.018Z,4704
2018-07-04T13:22:00.675Z,4780
2018-07-04T13:23:09.333Z,4692
2018-07-04T13:24:18.259Z,4668
2018-07-04T13:25:26.905Z,4616
2018-07-04T13:26:35.566Z,4560
2018-07-04T13:27:44.227Z,4492
2018-07-04T13:28:53.154Z,4420
2018-07-04T13:30:01.819Z,4360
2018-07-04T13:31:10.464Z,4344
2018-07-04T13:32:19.138Z,4404
2018-07-04T13:33:28.401Z,4404
2018-07-04T13:34:37.142Z,4356
2018-07-04T13:35:45.798Z,4344
2018-07-04T13:36:54.453Z,4324
2018-07-04T13:38:03.109Z,4316
2018-07-04T13:39:11.774Z,4296
2018-07-04T13:40:20.425Z,4324
2018-07-04T13:41:29.082Z,4356
2018-07-04T13:42:37.735Z,4400
2018-07-04T13:43:46.397Z,4360
2018-07-04T13:44:55.053Z,4392
2018-07-04T13:46:03.710Z,4328
2018-07-04T13:47:12.368Z,4368
2018-07-04T13:48:21.284Z,4324
2018-07-04T13:49:29.943Z,4264
2018-07-04T13:50:38.866Z,4080
2018-07-04T13:51:47.526Z,4620
2018-07-04T13:52:56.178Z,4904
2018-07-04T13:54:04.839Z,4960
2018-07-04T13:55:13.761Z,5024
2018-07-04T13:56:22.416Z,5112
2018-07-04T13:57:31.070Z,5088
2018-07-04T13:58:39.995Z,5128
2018-07-04T13:59:48.649Z,5100
2018-07-04T14:00:57.306Z,4992
2018-07-04T14:02:05.964Z,4948
2018-07-04T14:03:14.660Z,4864
2018-07-04T14:04:23.283Z,4928
2018-07-04T14:05:31.940Z,4860
2018-07-04T14:06:40.599Z,4940
2018-07-04T14:07:49.252Z,5016
2018-07-04T14:08:58.182Z,4992
2018-07-04T14:10:06.850Z,5008
2018-07-04T14:11:15.803Z,4940
2018-07-04T14:12:24.733Z,4884
2018-07-04T14:13:33.389Z,4808
2018-07-04T14:14:42.051Z,4804
2018-07-04T14:15:50.712Z,4528
2018-07-04T14:16:59.365Z,4688
2018-07-04T14:18:08.024Z,4392
2018-07-04T14:19:16.678Z,4280
2018-07-04T14:20:25.339Z,4200
2018-07-04T14:21:34.287Z,4088
2018-07-04T14:22:42.943Z,3796
2018-07-04T14:23:51.597Z,3852
2018-07-04T14:25:00.251Z,3744
2018-07-04T14:26:08.920Z,3396
2018-07-04T14:27:17.569Z,3820
2018-07-04T14:28:26.225Z,3748
2018-07-04T14:29:34.885Z,3932
2018-07-04T14:30:43.544Z,3976
2018-07-04T14:31:52.195Z,4176
2018-07-04T14:33:00.851Z,4260
2018-07-04T14:34:09.512Z,4628
2018-07-04T14:35:18.165Z,4828
2018-07-04T14:36:26.825Z,4928
2018-07-04T14:37:35.481Z,4912
2018-07-04T14:38:44.143Z,4364
2018-07-04T14:39:52.801Z,4664
2018-07-04T14:41:01.459Z,4532
2018-07-04T14:42:10.110Z,4520
2018-07-04T14:43:18.764Z,4600
2018-07-04T14:44:27.423Z,4736
2018-07-04T14:45:36.079Z,4856
2018-07-04T14:46:44.805Z,4804
2018-07-04T14:47:53.750Z,5052
2018-07-04T14:49:02.412Z,4572
2018-07-04T14:50:11.070Z,4968
2018-07-04T14:51:19.726Z,4848
2018-07-04T14:52:28.551Z,4616
2018-07-04T14:53:37.044Z,4372
2018-07-04T14:54:45.697Z,4792
2018-07-04T14:55:54.360Z,5040
2018-07-04T14:57:03.545Z,4716
2018-07-04T14:58:12.203Z,4624
2018-07-04T14:59:20.867Z,4556
2018-07-04T15:00:29.526Z,4476
2018-07-04T15:01:38.186Z,4364
2018-07-04T15:02:46.837Z,4412
2018-07-04T15:03:55.492Z,4448
2018-07-04T15:05:04.421Z,4464
2018-07-04T15:06:13.086Z,4516
2018-07-04T15:07:21.741Z,4668
2018-07-04T15:08:30.404Z,4844
2018-07-04T15:09:39.054Z,4928
2018-07-04T15:10:47.719Z,4936
2018-07-04T15:11:56.368Z,4932
2018-07-04T15:13:05.032Z,4932
2018-07-04T15:14:13.682Z,4888
2018-07-04T15:15:22.342Z,4816
2018-07-04T15:16:31.259Z,4780
2018-07-04T15:17:39.915Z,4700
2018-07-04T15:18:48.850Z,4584
2018-07-04T15:19:57.504Z,4376
2018-07-04T15:21:06.170Z,4140
2018-07-04T15:22:15.129Z,3924
2018-07-04T15:23:24.124Z,3692
2018-07-04T15:24:33.045Z,3476
2018-07-04T15:25:41.712Z,3276
2018-07-04T15:26:50.360Z,3124
2018-07-04T15:27:59.075Z,3016
2018-07-04T15:29:07.669Z,2940
2018-07-04T15:30:16.341Z,2900
2018-07-04T15:31:24.994Z,2876
2018-07-04T15:32:33.652Z,2776
2018-07-04T15:33:42.303Z,2632